sensor_id;sensor_type;location;lat;lon;timestamp;temperature;humidity
38263;DHT22;24054;50.128;19.730;2023-02-15T00:01:30;21.60;49.90
38263;DHT22;24054;50.128;19.730;2023-02-15T00:03:57;21.60;50.10
38263;DHT22;24054;50.128;19.730;2023-02-15T00:06:25;21.60;49.90
38263;DHT22;24054;50.128;19.730;2023-02-15T00:08:54;21.50;49.70
38263;DHT22;24054;50.128;19.730;2023-02-15T00:11:21;21.50;49.70
38263;DHT22;24054;50.128;19.730;2023-02-15T00:14:03;21.50;49.80
38263;DHT22;24054;50.128;19.730;2023-02-15T00:16:30;21.50;49.60
38263;DHT22;24054;50.128;19.730;2023-02-15T00:18:57;21.50;49.60
38263;DHT22;24054;50.128;19.730;2023-02-15T00:21:29;21.50;49.60
38263;DHT22;24054;50.128;19.730;2023-02-15T00:23:56;21.50;49.60
38263;DHT22;24054;50.128;19.730;2023-02-15T00:26:24;21.50;49.60
38263;DHT22;24054;50.128;19.730;2023-02-15T00:28:51;21.50;49.60
38263;DHT22;24054;50.128;19.730;2023-02-15T00:31:18;21.40;49.50
38263;DHT22;24054;50.128;19.730;2023-02-15T00:33:45;21.40;49.50
38263;DHT22;24054;50.128;19.730;2023-02-15T00:36:13;21.40;49.50
38263;DHT22;24054;50.128;19.730;2023-02-15T00:38:41;21.40;49.50
38263;DHT22;24054;50.128;19.730;2023-02-15T00:41:09;21.40;49.50
38263;DHT22;24054;50.128;19.730;2023-02-15T00:43:36;21.40;49.40
38263;DHT22;24054;50.128;19.730;2023-02-15T00:46:04;21.40;49.40
38263;DHT22;24054;50.128;19.730;2023-02-15T00:48:31;21.40;49.40
38263;DHT22;24054;50.128;19.730;2023-02-15T00:50:59;21.40;49.40
38263;DHT22;24054;50.128;19.730;2023-02-15T00:53:27;21.30;49.40
38263;DHT22;24054;50.128;19.730;2023-02-15T00:55:56;21.30;49.30
38263;DHT22;24054;50.128;19.730;2023-02-15T00:58:24;21.40;49.30
38263;DHT22;24054;50.128;19.730;2023-02-15T01:00:52;21.30;49.20
38263;DHT22;24054;50.128;19.730;2023-02-15T01:03:19;21.30;49.20
38263;DHT22;24054;50.128;19.730;2023-02-15T01:05:48;21.30;49.20
38263;DHT22;24054;50.128;19.730;2023-02-15T01:08:16;21.30;49.20
38263;DHT22;24054;50.128;19.730;2023-02-15T01:10:43;21.30;49.40
38263;DHT22;24054;50.128;19.730;2023-02-15T01:13:14;21.30;49.20
38263;DHT22;24054;50.128;19.730;2023-02-15T01:15:42;21.30;49.20
38263;DHT22;24054;50.128;19.730;2023-02-15T01:18:09;21.30;49.20
38263;DHT22;24054;50.128;19.730;2023-02-15T01:20:38;21.30;49.20
38263;DHT22;24054;50.128;19.730;2023-02-15T01:23:07;21.30;49.20
38263;DHT22;24054;50.128;19.730;2023-02-15T01:25:35;21.20;49.30
38263;DHT22;24054;50.128;19.730;2023-02-15T01:28:03;21.20;49.20
38263;DHT22;24054;50.128;19.730;2023-02-15T01:30:32;21.20;49.30
38263;DHT22;24054;50.128;19.730;2023-02-15T01:32:59;21.20;49.30
38263;DHT22;24054;50.128;19.730;2023-02-15T01:35:27;21.20;49.20
38263;DHT22;24054;50.128;19.730;2023-02-15T01:37:56;21.20;49.30
38263;DHT22;24054;50.128;19.730;2023-02-15T01:40:24;21.20;49.30
38263;DHT22;24054;50.128;19.730;2023-02-15T01:42:51;21.10;49.20
38263;DHT22;24054;50.128;19.730;2023-02-15T01:45:21;21.20;49.30
38263;DHT22;24054;50.128;19.730;2023-02-15T01:47:54;21.20;49.30
38263;DHT22;24054;50.128;19.730;2023-02-15T01:50:26;21.10;49.30
38263;DHT22;24054;50.128;19.730;2023-02-15T01:52:57;21.10;49.30
38263;DHT22;24054;50.128;19.730;2023-02-15T01:55:29;21.10;49.30
38263;DHT22;24054;50.128;19.730;2023-02-15T01:57:57;21.10;49.30
38263;DHT22;24054;50.128;19.730;2023-02-15T02:00:24;21.10;49.30
38263;DHT22;24054;50.128;19.730;2023-02-15T02:02:54;21.10;49.30
38263;DHT22;24054;50.128;19.730;2023-02-15T02:05:22;21.10;49.30
38263;DHT22;24054;50.128;19.730;2023-02-15T02:07:52;21.10;49.40
38263;DHT22;24054;50.128;19.730;2023-02-15T02:10:22;21.00;49.30
38263;DHT22;24054;50.128;19.730;2023-02-15T02:12:51;21.10;49.30
38263;DHT22;24054;50.128;19.730;2023-02-15T02:15:23;21.00;49.30
38263;DHT22;24054;50.128;19.730;2023-02-15T02:18:02;21.00;49.40
38263;DHT22;24054;50.128;19.730;2023-02-15T02:23:48;21.10;49.40
38263;DHT22;24054;50.128;19.730;2023-02-15T02:30:32;21.00;50.00
38263;DHT22;24054;50.128;19.730;2023-02-15T02:33:24;21.00;49.30
38263;DHT22;24054;50.128;19.730;2023-02-15T02:36:02;21.00;49.40
38263;DHT22;24054;50.128;19.730;2023-02-15T02:38:38;21.00;49.30
38263;DHT22;24054;50.128;19.730;2023-02-15T02:41:15;21.00;49.40
38263;DHT22;24054;50.128;19.730;2023-02-15T02:43:49;20.90;49.30
38263;DHT22;24054;50.128;19.730;2023-02-15T02:46:20;21.00;49.40
38263;DHT22;24054;50.128;19.730;2023-02-15T02:48:50;20.90;49.30
38263;DHT22;24054;50.128;19.730;2023-02-15T02:51:17;20.90;49.30
38263;DHT22;24054;50.128;19.730;2023-02-15T02:53:49;20.90;49.30
38263;DHT22;24054;50.128;19.730;2023-02-15T02:56:22;20.90;49.30
38263;DHT22;24054;50.128;19.730;2023-02-15T02:58:55;20.90;49.30
38263;DHT22;24054;50.128;19.730;2023-02-15T03:01:26;20.90;49.30
38263;DHT22;24054;50.128;19.730;2023-02-15T03:03:58;20.90;49.30
38263;DHT22;24054;50.128;19.730;2023-02-15T03:06:31;20.90;49.30
38263;DHT22;24054;50.128;19.730;2023-02-15T03:09:08;20.90;49.30
38263;DHT22;24054;50.128;19.730;2023-02-15T03:11:40;20.80;49.20
38263;DHT22;24054;50.128;19.730;2023-02-15T03:14:08;20.80;49.20
38263;DHT22;24054;50.128;19.730;2023-02-15T03:16:36;20.90;49.30
38263;DHT22;24054;50.128;19.730;2023-02-15T03:19:07;20.90;49.30
38263;DHT22;24054;50.128;19.730;2023-02-15T03:21:40;20.90;49.30
38263;DHT22;24054;50.128;19.730;2023-02-15T03:24:12;20.80;49.20
38263;DHT22;24054;50.128;19.730;2023-02-15T03:26:42;20.80;49.20
38263;DHT22;24054;50.128;19.730;2023-02-15T03:29:10;20.80;49.20
38263;DHT22;24054;50.128;19.730;2023-02-15T03:31:41;20.80;49.20
38263;DHT22;24054;50.128;19.730;2023-02-15T03:34:12;20.80;49.20
38263;DHT22;24054;50.128;19.730;2023-02-15T03:36:44;20.80;49.20
38263;DHT22;24054;50.128;19.730;2023-02-15T03:39:18;20.80;49.20
38263;DHT22;24054;50.128;19.730;2023-02-15T03:41:53;20.80;49.20
38263;DHT22;24054;50.128;19.730;2023-02-15T03:44:27;20.80;49.20
38263;DHT22;24054;50.128;19.730;2023-02-15T03:47:00;20.80;49.20
38263;DHT22;24054;50.128;19.730;2023-02-15T03:49:36;20.70;49.20
38263;DHT22;24054;50.128;19.730;2023-02-15T03:52:05;20.70;49.20
38263;DHT22;24054;50.128;19.730;2023-02-15T03:54:33;20.70;49.20
38263;DHT22;24054;50.128;19.730;2023-02-15T03:57:18;20.70;49.20
38263;DHT22;24054;50.128;19.730;2023-02-15T04:00:05;20.70;49.20
38263;DHT22;24054;50.128;19.730;2023-02-15T04:03:01;20.70;49.10
38263;DHT22;24054;50.128;19.730;2023-02-15T04:05:34;20.70;49.10
38263;DHT22;24054;50.128;19.730;2023-02-15T04:08:01;20.70;49.20
38263;DHT22;24054;50.128;19.730;2023-02-15T04:10:28;20.70;49.20
38263;DHT22;24054;50.128;19.730;2023-02-15T04:13:12;20.70;49.20
38263;DHT22;24054;50.128;19.730;2023-02-15T04:15:39;20.70;49.20
38263;DHT22;24054;50.128;19.730;2023-02-15T04:18:24;20.70;49.20
38263;DHT22;24054;50.128;19.730;2023-02-15T04:21:09;20.70;49.20
38263;DHT22;24054;50.128;19.730;2023-02-15T04:23:54;20.60;49.10
38263;DHT22;24054;50.128;19.730;2023-02-15T04:26:38;20.60;49.20
38263;DHT22;24054;50.128;19.730;2023-02-15T04:29:06;20.60;49.20
38263;DHT22;24054;50.128;19.730;2023-02-15T04:31:33;20.60;49.20
38263;DHT22;24054;50.128;19.730;2023-02-15T04:34:00;20.60;49.20
38263;DHT22;24054;50.128;19.730;2023-02-15T04:36:29;20.60;49.20
38263;DHT22;24054;50.128;19.730;2023-02-15T04:38:56;20.70;49.30
38263;DHT22;24054;50.128;19.730;2023-02-15T04:41:22;20.60;49.20
38263;DHT22;24054;50.128;19.730;2023-02-15T04:43:49;20.60;49.20
38263;DHT22;24054;50.128;19.730;2023-02-15T04:46:16;20.60;49.10
38263;DHT22;24054;50.128;19.730;2023-02-15T04:48:44;20.60;49.10
38263;DHT22;24054;50.128;19.730;2023-02-15T04:51:11;20.60;49.10
38263;DHT22;24054;50.128;19.730;2023-02-15T04:53:39;20.60;49.10
38263;DHT22;24054;50.128;19.730;2023-02-15T04:56:06;20.60;49.10
38263;DHT22;24054;50.128;19.730;2023-02-15T04:58:33;20.60;49.10
38263;DHT22;24054;50.128;19.730;2023-02-15T05:01:00;20.60;49.10
38263;DHT22;24054;50.128;19.730;2023-02-15T05:03:27;20.60;49.10
38263;DHT22;24054;50.128;19.730;2023-02-15T05:05:54;20.60;49.10
38263;DHT22;24054;50.128;19.730;2023-02-15T05:08:21;20.50;49.10
38263;DHT22;24054;50.128;19.730;2023-02-15T05:10:50;20.50;49.10
38263;DHT22;24054;50.128;19.730;2023-02-15T05:13:17;20.50;49.10
38263;DHT22;24054;50.128;19.730;2023-02-15T05:15:47;20.50;49.10
38263;DHT22;24054;50.128;19.730;2023-02-15T05:18:16;20.50;49.10
38263;DHT22;24054;50.128;19.730;2023-02-15T05:20:43;20.50;49.10
38263;DHT22;24054;50.128;19.730;2023-02-15T05:23:10;20.50;49.10
38263;DHT22;24054;50.128;19.730;2023-02-15T05:25:37;20.50;49.10
38263;DHT22;24054;50.128;19.730;2023-02-15T05:28:25;20.50;49.10
38263;DHT22;24054;50.128;19.730;2023-02-15T05:31:03;20.50;49.10
38263;DHT22;24054;50.128;19.730;2023-02-15T05:33:30;20.50;49.10
38263;DHT22;24054;50.128;19.730;2023-02-15T05:35:57;20.50;49.10
38263;DHT22;24054;50.128;19.730;2023-02-15T05:38:24;20.50;49.10
38263;DHT22;24054;50.128;19.730;2023-02-15T05:40:51;20.50;49.10
38263;DHT22;24054;50.128;19.730;2023-02-15T05:43:18;20.40;49.00
38263;DHT22;24054;50.128;19.730;2023-02-15T05:45:47;20.40;49.00
38263;DHT22;24054;50.128;19.730;2023-02-15T05:48:15;20.40;49.00
38263;DHT22;24054;50.128;19.730;2023-02-15T05:50:42;20.40;49.00
38263;DHT22;24054;50.128;19.730;2023-02-15T05:53:10;20.40;49.00
38263;DHT22;24054;50.128;19.730;2023-02-15T05:55:37;20.40;49.00
38263;DHT22;24054;50.128;19.730;2023-02-15T05:58:05;20.40;49.00
38263;DHT22;24054;50.128;19.730;2023-02-15T06:00:32;20.40;49.00
38263;DHT22;24054;50.128;19.730;2023-02-15T06:03:00;20.40;49.00
38263;DHT22;24054;50.128;19.730;2023-02-15T06:05:27;20.40;49.00
38263;DHT22;24054;50.128;19.730;2023-02-15T06:07:54;20.40;49.00
38263;DHT22;24054;50.128;19.730;2023-02-15T06:10:21;20.40;49.00
38263;DHT22;24054;50.128;19.730;2023-02-15T06:12:48;20.40;49.10
38263;DHT22;24054;50.128;19.730;2023-02-15T06:15:15;20.40;49.20
38263;DHT22;24054;50.128;19.730;2023-02-15T06:17:43;20.40;49.20
38263;DHT22;24054;50.128;19.730;2023-02-15T06:20:12;20.40;49.60
38263;DHT22;24054;50.128;19.730;2023-02-15T06:22:39;20.30;49.90
38263;DHT22;24054;50.128;19.730;2023-02-15T06:25:06;20.40;50.00
38263;DHT22;24054;50.128;19.730;2023-02-15T06:27:35;20.40;50.00
38263;DHT22;24054;50.128;19.730;2023-02-15T06:30:04;20.50;50.20
38263;DHT22;24054;50.128;19.730;2023-02-15T06:32:31;20.50;50.20
38263;DHT22;24054;50.128;19.730;2023-02-15T06:34:58;20.60;50.20
38263;DHT22;24054;50.128;19.730;2023-02-15T06:37:26;20.60;50.30
38263;DHT22;24054;50.128;19.730;2023-02-15T06:39:56;20.60;50.90
38263;DHT22;24054;50.128;19.730;2023-02-15T06:42:24;20.70;51.80
38263;DHT22;24054;50.128;19.730;2023-02-15T06:44:51;20.70;52.20
38263;DHT22;24054;50.128;19.730;2023-02-15T06:47:18;20.80;52.20
38263;DHT22;24054;50.128;19.730;2023-02-15T06:49:45;20.90;52.70
38263;DHT22;24054;50.128;19.730;2023-02-15T06:52:12;20.90;52.60
38263;DHT22;24054;50.128;19.730;2023-02-15T06:54:42;20.90;52.50
38263;DHT22;24054;50.128;19.730;2023-02-15T06:57:09;21.00;52.60
38263;DHT22;24054;50.128;19.730;2023-02-15T06:59:36;21.00;52.50
38263;DHT22;24054;50.128;19.730;2023-02-15T07:02:03;21.00;52.50
38263;DHT22;24054;50.128;19.730;2023-02-15T07:04:30;21.10;52.30
38263;DHT22;24054;50.128;19.730;2023-02-15T07:06:57;21.10;52.10
38263;DHT22;24054;50.128;19.730;2023-02-15T07:09:24;21.20;52.00
38263;DHT22;24054;50.128;19.730;2023-02-15T07:11:52;21.20;51.80
38263;DHT22;24054;50.128;19.730;2023-02-15T07:14:37;21.20;51.70
38263;DHT22;24054;50.128;19.730;2023-02-15T07:17:04;21.20;51.60
38263;DHT22;24054;50.128;19.730;2023-02-15T07:19:31;21.30;51.50
38263;DHT22;24054;50.128;19.730;2023-02-15T07:21:58;21.30;52.00
38263;DHT22;24054;50.128;19.730;2023-02-15T07:24:25;21.30;51.20
38263;DHT22;24054;50.128;19.730;2023-02-15T07:26:53;21.30;51.20
38263;DHT22;24054;50.128;19.730;2023-02-15T07:29:20;21.30;51.00
38263;DHT22;24054;50.128;19.730;2023-02-15T07:31:48;21.30;50.90
38263;DHT22;24054;50.128;19.730;2023-02-15T07:34:16;21.30;50.80
38263;DHT22;24054;50.128;19.730;2023-02-15T07:36:44;21.40;50.80
38263;DHT22;24054;50.128;19.730;2023-02-15T07:39:11;21.40;50.70
38263;DHT22;24054;50.128;19.730;2023-02-15T07:41:38;21.40;50.50
38263;DHT22;24054;50.128;19.730;2023-02-15T07:44:11;21.40;50.80
38263;DHT22;24054;50.128;19.730;2023-02-15T07:46:38;21.50;50.50
38263;DHT22;24054;50.128;19.730;2023-02-15T07:49:05;21.50;50.30
38263;DHT22;24054;50.128;19.730;2023-02-15T07:51:32;21.50;50.20
38263;DHT22;24054;50.128;19.730;2023-02-15T07:53:59;21.50;50.10
38263;DHT22;24054;50.128;19.730;2023-02-15T07:56:26;21.50;49.90
38263;DHT22;24054;50.128;19.730;2023-02-15T07:58:53;21.60;49.90
38263;DHT22;24054;50.128;19.730;2023-02-15T08:01:26;21.60;49.70
38263;DHT22;24054;50.128;19.730;2023-02-15T08:03:56;21.60;49.60
38263;DHT22;24054;50.128;19.730;2023-02-15T08:06:25;21.60;49.50
38263;DHT22;24054;50.128;19.730;2023-02-15T08:08:53;21.60;49.50
38263;DHT22;24054;50.128;19.730;2023-02-15T08:11:21;21.60;49.30
38263;DHT22;24054;50.128;19.730;2023-02-15T08:13:56;21.60;49.20
38263;DHT22;24054;50.128;19.730;2023-02-15T08:16:30;21.60;49.10
38263;DHT22;24054;50.128;19.730;2023-02-15T08:18:59;21.60;49.00
38263;DHT22;24054;50.128;19.730;2023-02-15T08:21:28;21.70;48.90
38263;DHT22;24054;50.128;19.730;2023-02-15T08:23:55;21.70;48.80
38263;DHT22;24054;50.128;19.730;2023-02-15T08:26:23;21.70;48.70
38263;DHT22;24054;50.128;19.730;2023-02-15T08:28:51;21.70;48.60
38263;DHT22;24054;50.128;19.730;2023-02-15T08:31:18;21.70;48.50
38263;DHT22;24054;50.128;19.730;2023-02-15T08:33:49;21.70;48.40
38263;DHT22;24054;50.128;19.730;2023-02-15T08:36:17;21.70;48.30
38263;DHT22;24054;50.128;19.730;2023-02-15T08:38:45;21.70;48.20
38263;DHT22;24054;50.128;19.730;2023-02-15T08:41:14;21.80;48.20
38263;DHT22;24054;50.128;19.730;2023-02-15T08:43:42;21.70;48.10
38263;DHT22;24054;50.128;19.730;2023-02-15T08:46:11;21.70;48.00
38263;DHT22;24054;50.128;19.730;2023-02-15T08:48:38;21.70;48.00
38263;DHT22;24054;50.128;19.730;2023-02-15T08:51:11;21.70;47.90
38263;DHT22;24054;50.128;19.730;2023-02-15T08:53:39;21.70;47.80
38263;DHT22;24054;50.128;19.730;2023-02-15T08:56:07;21.70;47.70
38263;DHT22;24054;50.128;19.730;2023-02-15T08:58:35;21.70;47.70
38263;DHT22;24054;50.128;19.730;2023-02-15T09:01:09;21.70;47.70
38263;DHT22;24054;50.128;19.730;2023-02-15T09:03:36;21.70;47.60
38263;DHT22;24054;50.128;19.730;2023-02-15T09:06:03;21.70;47.50
38263;DHT22;24054;50.128;19.730;2023-02-15T09:08:32;21.70;47.50
38263;DHT22;24054;50.128;19.730;2023-02-15T09:11:07;21.70;47.40
38263;DHT22;24054;50.128;19.730;2023-02-15T09:13:36;21.70;47.40
38263;DHT22;24054;50.128;19.730;2023-02-15T09:16:05;21.70;47.40
38263;DHT22;24054;50.128;19.730;2023-02-15T09:18:34;21.70;47.30
38263;DHT22;24054;50.128;19.730;2023-02-15T09:21:07;21.70;47.30
38263;DHT22;24054;50.128;19.730;2023-02-15T09:23:36;21.70;47.20
38263;DHT22;24054;50.128;19.730;2023-02-15T09:26:05;21.70;47.10
38263;DHT22;24054;50.128;19.730;2023-02-15T09:28:32;21.80;47.10
38263;DHT22;24054;50.128;19.730;2023-02-15T09:31:10;21.80;46.70
38263;DHT22;24054;50.128;19.730;2023-02-15T09:33:39;21.80;46.80
38263;DHT22;24054;50.128;19.730;2023-02-15T09:36:14;21.90;46.50
38263;DHT22;24054;50.128;19.730;2023-02-15T09:38:43;22.00;46.60
38263;DHT22;24054;50.128;19.730;2023-02-15T09:41:30;22.10;46.50
38263;DHT22;24054;50.128;19.730;2023-02-15T09:44:11;22.10;46.50
38263;DHT22;24054;50.128;19.730;2023-02-15T09:47:12;22.20;46.30
38263;DHT22;24054;50.128;19.730;2023-02-15T09:49:48;22.30;46.30
38263;DHT22;24054;50.128;19.730;2023-02-15T09:52:38;22.40;46.10
38263;DHT22;24054;50.128;19.730;2023-02-15T09:55:24;22.50;46.10
38263;DHT22;24054;50.128;19.730;2023-02-15T09:58:04;22.60;45.90
38263;DHT22;24054;50.128;19.730;2023-02-15T10:00:41;22.70;45.70
38263;DHT22;24054;50.128;19.730;2023-02-15T10:03:25;22.80;45.50
38263;DHT22;24054;50.128;19.730;2023-02-15T10:06:07;22.90;45.40
38263;DHT22;24054;50.128;19.730;2023-02-15T10:11:38;23.10;45.10
38263;DHT22;24054;50.128;19.730;2023-02-15T10:14:27;23.20;45.00
38263;DHT22;24054;50.128;19.730;2023-02-15T10:17:10;23.30;44.90
38263;DHT22;24054;50.128;19.730;2023-02-15T10:19:42;23.40;44.70
38263;DHT22;24054;50.128;19.730;2023-02-15T10:22:22;23.40;44.60
38263;DHT22;24054;50.128;19.730;2023-02-15T10:25:13;23.50;44.50
38263;DHT22;24054;50.128;19.730;2023-02-15T10:27:47;23.60;44.50
38263;DHT22;24054;50.128;19.730;2023-02-15T10:30:19;23.70;44.30
38263;DHT22;24054;50.128;19.730;2023-02-15T10:33:01;23.80;44.10
38263;DHT22;24054;50.128;19.730;2023-02-15T10:35:36;23.80;44.10
38263;DHT22;24054;50.128;19.730;2023-02-15T10:38:16;23.90;44.00
38263;DHT22;24054;50.128;19.730;2023-02-15T10:40:53;24.00;43.70
38263;DHT22;24054;50.128;19.730;2023-02-15T10:43:40;24.10;43.60
38263;DHT22;24054;50.128;19.730;2023-02-15T10:46:20;24.10;43.40
38263;DHT22;24054;50.128;19.730;2023-02-15T10:51:55;24.30;43.00
38263;DHT22;24054;50.128;19.730;2023-02-15T10:54:29;24.30;39.70
38263;DHT22;24054;50.128;19.730;2023-02-15T10:57:04;24.20;35.50
38263;DHT22;24054;50.128;19.730;2023-02-15T10:59:48;24.10;35.20
38263;DHT22;24054;50.128;19.730;2023-02-15T11:02:24;23.90;35.60
38263;DHT22;24054;50.128;19.730;2023-02-15T11:04:59;23.80;35.80
38263;DHT22;24054;50.128;19.730;2023-02-15T11:07:33;23.70;34.60
38263;DHT22;24054;50.128;19.730;2023-02-15T11:10:14;23.70;36.40
38263;DHT22;24054;50.128;19.730;2023-02-15T11:12:46;23.60;36.90
38263;DHT22;24054;50.128;19.730;2023-02-15T11:15:19;23.60;36.80
38263;DHT22;24054;50.128;19.730;2023-02-15T11:17:50;23.60;36.50
38263;DHT22;24054;50.128;19.730;2023-02-15T11:20:24;23.50;35.10
38263;DHT22;24054;50.128;19.730;2023-02-15T11:22:52;23.50;35.60
38263;DHT22;24054;50.128;19.730;2023-02-15T11:25:25;23.50;36.20
38263;DHT22;24054;50.128;19.730;2023-02-15T11:27:53;23.40;37.00
38263;DHT22;24054;50.128;19.730;2023-02-15T11:30:26;23.50;37.10
38263;DHT22;24054;50.128;19.730;2023-02-15T11:32:56;23.40;36.30
38263;DHT22;24054;50.128;19.730;2023-02-15T11:35:27;23.40;35.20
38263;DHT22;24054;50.128;19.730;2023-02-15T11:38:01;23.30;34.90
38263;DHT22;24054;50.128;19.730;2023-02-15T11:40:33;23.30;34.90
38263;DHT22;24054;50.128;19.730;2023-02-15T11:43:04;23.20;35.00
38263;DHT22;24054;50.128;19.730;2023-02-15T11:45:45;23.20;36.30
38263;DHT22;24054;50.128;19.730;2023-02-15T11:48:13;23.20;36.40
38263;DHT22;24054;50.128;19.730;2023-02-15T11:50:45;23.20;35.70
38263;DHT22;24054;50.128;19.730;2023-02-15T11:53:13;23.20;35.30
38263;DHT22;24054;50.128;19.730;2023-02-15T11:55:43;23.20;36.00
38263;DHT22;24054;50.128;19.730;2023-02-15T11:58:13;23.20;35.30
38263;DHT22;24054;50.128;19.730;2023-02-15T12:00:45;23.20;36.10
38263;DHT22;24054;50.128;19.730;2023-02-15T12:03:17;23.20;35.80
38263;DHT22;24054;50.128;19.730;2023-02-15T12:05:47;23.30;36.00
38263;DHT22;24054;50.128;19.730;2023-02-15T12:08:19;23.30;35.80
38263;DHT22;24054;50.128;19.730;2023-02-15T12:11:05;23.40;36.20
38263;DHT22;24054;50.128;19.730;2023-02-15T12:13:56;23.50;36.80
38263;DHT22;24054;50.128;19.730;2023-02-15T12:16:25;23.50;37.10
38263;DHT22;24054;50.128;19.730;2023-02-15T12:18:56;23.60;37.30
38263;DHT22;24054;50.128;19.730;2023-02-15T12:21:29;23.70;37.70
38263;DHT22;24054;50.128;19.730;2023-02-15T12:24:00;23.80;37.80
38263;DHT22;24054;50.128;19.730;2023-02-15T12:26:29;23.80;37.80
38263;DHT22;24054;50.128;19.730;2023-02-15T12:28:59;23.90;37.90
38263;DHT22;24054;50.128;19.730;2023-02-15T12:31:32;24.00;38.10
38263;DHT22;24054;50.128;19.730;2023-02-15T12:34:07;24.00;38.20
38263;DHT22;24054;50.128;19.730;2023-02-15T12:36:42;24.10;38.60
38263;DHT22;24054;50.128;19.730;2023-02-15T12:39:21;24.10;38.60
38263;DHT22;24054;50.128;19.730;2023-02-15T12:42:03;24.10;38.70
38263;DHT22;24054;50.128;19.730;2023-02-15T12:44:32;24.20;38.80
38263;DHT22;24054;50.128;19.730;2023-02-15T12:47:03;24.20;39.00
38263;DHT22;24054;50.128;19.730;2023-02-15T12:49:32;24.20;39.10
38263;DHT22;24054;50.128;19.730;2023-02-15T12:52:00;24.30;39.10
38263;DHT22;24054;50.128;19.730;2023-02-15T12:54:29;24.30;39.20
38263;DHT22;24054;50.128;19.730;2023-02-15T12:56:57;24.30;39.40
38263;DHT22;24054;50.128;19.730;2023-02-15T12:59:24;24.30;39.50
38263;DHT22;24054;50.128;19.730;2023-02-15T13:01:52;24.30;39.80
38263;DHT22;24054;50.128;19.730;2023-02-15T13:04:25;24.40;39.90
38263;DHT22;24054;50.128;19.730;2023-02-15T13:06:55;24.40;40.10
38263;DHT22;24054;50.128;19.730;2023-02-15T13:09:38;24.30;40.30
38263;DHT22;24054;50.128;19.730;2023-02-15T13:12:11;24.40;40.40
38263;DHT22;24054;50.128;19.730;2023-02-15T13:14:44;24.40;40.70
38263;DHT22;24054;50.128;19.730;2023-02-15T13:17:13;24.40;40.80
38263;DHT22;24054;50.128;19.730;2023-02-15T13:19:47;24.40;40.90
38263;DHT22;24054;50.128;19.730;2023-02-15T13:22:16;24.40;41.00
38263;DHT22;24054;50.128;19.730;2023-02-15T13:24:47;24.40;41.10
38263;DHT22;24054;50.128;19.730;2023-02-15T13:27:17;24.40;41.30
38263;DHT22;24054;50.128;19.730;2023-02-15T13:29:48;24.40;41.30
38263;DHT22;24054;50.128;19.730;2023-02-15T13:32:25;24.30;41.40
38263;DHT22;24054;50.128;19.730;2023-02-15T13:34:57;24.30;41.50
38263;DHT22;24054;50.128;19.730;2023-02-15T13:37:43;24.30;41.60
38263;DHT22;24054;50.128;19.730;2023-02-15T13:40:15;24.30;41.70
38263;DHT22;24054;50.128;19.730;2023-02-15T13:42:48;24.30;41.70
38263;DHT22;24054;50.128;19.730;2023-02-15T13:45:30;24.30;41.80
38263;DHT22;24054;50.128;19.730;2023-02-15T13:48:04;24.30;41.90
38263;DHT22;24054;50.128;19.730;2023-02-15T13:50:56;24.30;42.00
38263;DHT22;24054;50.128;19.730;2023-02-15T13:53:52;24.30;42.10
38263;DHT22;24054;50.128;19.730;2023-02-15T13:56:31;24.20;42.10
38263;DHT22;24054;50.128;19.730;2023-02-15T13:59:16;24.20;42.20
38263;DHT22;24054;50.128;19.730;2023-02-15T14:01:50;24.20;42.30
38263;DHT22;24054;50.128;19.730;2023-02-15T14:04:33;24.20;42.30
38263;DHT22;24054;50.128;19.730;2023-02-15T14:07:26;24.20;42.40
38263;DHT22;24054;50.128;19.730;2023-02-15T14:10:08;24.20;42.40
38263;DHT22;24054;50.128;19.730;2023-02-15T14:12:49;24.10;42.40
38263;DHT22;24054;50.128;19.730;2023-02-15T14:15:28;24.10;42.50
38263;DHT22;24054;50.128;19.730;2023-02-15T14:18:05;24.10;42.60
38263;DHT22;24054;50.128;19.730;2023-02-15T14:20:46;24.10;42.60
38263;DHT22;24054;50.128;19.730;2023-02-15T14:23:24;24.10;42.70
38263;DHT22;24054;50.128;19.730;2023-02-15T14:25:58;24.10;42.70
38263;DHT22;24054;50.128;19.730;2023-02-15T14:28:31;24.00;42.70
38263;DHT22;24054;50.128;19.730;2023-02-15T14:31:01;24.00;42.80
38263;DHT22;24054;50.128;19.730;2023-02-15T14:33:32;24.00;42.80
38263;DHT22;24054;50.128;19.730;2023-02-15T14:36:01;24.00;42.80
38263;DHT22;24054;50.128;19.730;2023-02-15T14:38:36;23.90;42.80
38263;DHT22;24054;50.128;19.730;2023-02-15T14:41:09;24.00;42.90
38263;DHT22;24054;50.128;19.730;2023-02-15T14:43:47;23.90;42.90
38263;DHT22;24054;50.128;19.730;2023-02-15T14:46:21;23.90;43.00
38263;DHT22;24054;50.128;19.730;2023-02-15T14:48:53;23.90;43.10
38263;DHT22;24054;50.128;19.730;2023-02-15T14:52:02;23.80;43.10
38263;DHT22;24054;50.128;19.730;2023-02-15T14:54:57;23.80;43.20
38263;DHT22;24054;50.128;19.730;2023-02-15T14:57:26;23.80;43.30
38263;DHT22;24054;50.128;19.730;2023-02-15T14:59:57;23.80;43.40
38263;DHT22;24054;50.128;19.730;2023-02-15T15:02:26;23.80;43.50
38263;DHT22;24054;50.128;19.730;2023-02-15T15:05:01;23.70;43.60
38263;DHT22;24054;50.128;19.730;2023-02-15T15:07:37;23.70;43.60
38263;DHT22;24054;50.128;19.730;2023-02-15T15:10:37;23.70;43.60
38263;DHT22;24054;50.128;19.730;2023-02-15T15:13:38;23.60;43.70
38263;DHT22;24054;50.128;19.730;2023-02-15T15:16:30;23.60;43.80
38263;DHT22;24054;50.128;19.730;2023-02-15T15:18:59;23.50;43.80
38263;DHT22;24054;50.128;19.730;2023-02-15T15:21:56;23.50;43.80
38263;DHT22;24054;50.128;19.730;2023-02-15T15:24:50;23.50;43.80
38263;DHT22;24054;50.128;19.730;2023-02-15T15:27:38;23.50;43.90
38263;DHT22;24054;50.128;19.730;2023-02-15T15:33:16;23.40;43.80
38263;DHT22;24054;50.128;19.730;2023-02-15T15:36:01;23.40;43.90
38263;DHT22;24054;50.128;19.730;2023-02-15T15:38:43;23.30;44.00
38263;DHT22;24054;50.128;19.730;2023-02-15T15:41:18;23.30;44.20
38263;DHT22;24054;50.128;19.730;2023-02-15T15:44:20;23.30;44.20
38263;DHT22;24054;50.128;19.730;2023-02-15T15:49:44;23.20;44.40
38263;DHT22;24054;50.128;19.730;2023-02-15T15:52:15;23.20;44.50
38263;DHT22;24054;50.128;19.730;2023-02-15T15:54:44;23.10;44.50
38263;DHT22;24054;50.128;19.730;2023-02-15T15:57:18;23.10;44.60
38263;DHT22;24054;50.128;19.730;2023-02-15T15:59:48;23.10;44.60
38263;DHT22;24054;50.128;19.730;2023-02-15T16:02:16;23.00;44.60
38263;DHT22;24054;50.128;19.730;2023-02-15T16:04:44;23.00;44.60
38263;DHT22;24054;50.128;19.730;2023-02-15T16:07:22;23.00;44.60